IBP YPJT-YABA
Flight info
| Callsign | IBP |
|---|---|
| Flight time | N/A |
| Altitude | 19000 |
| Route | SOLUS W172 JOSBU V408 ABA |
| Aircraft | C414/L-SBDFGRY/S |
Departure
| Time | 2026-05-06 11:18 |
|---|---|
| Airport | Perth Jandakot Airport (YPJT) |
Arrival
| Time | N/A |
|---|---|
| Airport | Albany Airport (YABA) |
| Time | Latitude | Longitude | Altitude | Speed | Heading |
|---|---|---|---|---|---|
| 2026-05-06 11:06 | -32.09272 | 115.88169 | 94 ft | 0 kts | 105° |
| 2026-05-06 11:13 | -32.09275 | 115.88182 | 94 ft | 4 kts | 111° |
| 2026-05-06 11:13 | -32.09292 | 115.88183 | 94 ft | 2 kts | 229° |
| 2026-05-06 11:13 | -32.09294 | 115.88179 | 94 ft | 3 kts | 240° |
| 2026-05-06 11:13 | -32.09310 | 115.88139 | 95 ft | 4 kts | 226° |
| 2026-05-06 11:14 | -32.09349 | 115.88124 | 96 ft | 7 kts | 188° |
| 2026-05-06 11:14 | -32.09388 | 115.88129 | 96 ft | 6 kts | 148° |
| 2026-05-06 11:14 | -32.09431 | 115.88166 | 97 ft | 8 kts | 132° |
| 2026-05-06 11:14 | -32.09422 | 115.88216 | 96 ft | 6 kts | 54° |
| 2026-05-06 11:15 | -32.09393 | 115.88262 | 95 ft | 8 kts | 54° |
| 2026-05-06 11:15 | -32.09356 | 115.88322 | 94 ft | 10 kts | 55° |
| 2026-05-06 11:15 | -32.09312 | 115.88395 | 94 ft | 10 kts | 54° |
| 2026-05-06 11:15 | -32.09269 | 115.88465 | 95 ft | 10 kts | 56° |
| 2026-05-06 11:16 | -32.09289 | 115.88514 | 94 ft | 0 kts | 147° |
| 2026-05-06 11:17 | -32.09293 | 115.88517 | 94 ft | 4 kts | 148° |
| 2026-05-06 11:17 | -32.09322 | 115.88540 | 94 ft | 5 kts | 145° |
| 2026-05-06 11:17 | -32.09341 | 115.88545 | 94 ft | 6 kts | 234° |
| 2026-05-06 11:17 | -32.09375 | 115.88479 | 92 ft | 21 kts | 233° |
| 2026-05-06 11:18 | -32.09598 | 115.88115 | 96 ft | 85 kts | 234° |
| 2026-05-06 11:18 | -32.10032 | 115.87406 | 191 ft | 122 kts | 231° |
| 2026-05-06 11:18 | -32.10541 | 115.86516 | 455 ft | 141 kts | 235° |
| 2026-05-06 11:18 | -32.11114 | 115.85532 | 795 ft | 146 kts | 224° |
| 2026-05-06 11:19 | -32.11965 | 115.84937 | 1069 ft | 147 kts | 195° |
| 2026-05-06 11:19 | -32.12961 | 115.85121 | 1285 ft | 156 kts | 149° |
| 2026-05-06 11:19 | -32.13610 | 115.86151 | 1503 ft | 159 kts | 114° |
| 2026-05-06 11:19 | -32.14051 | 115.87369 | 1717 ft | 163 kts | 114° |
| 2026-05-06 11:20 | -32.14513 | 115.88587 | 1992 ft | 162 kts | 115° |
| 2026-05-06 11:20 | -32.14946 | 115.89779 | 2366 ft | 156 kts | 113° |
| 2026-05-06 11:20 | -32.15358 | 115.90945 | 2688 ft | 153 kts | 113° |
| 2026-05-06 11:20 | -32.15800 | 115.92071 | 3054 ft | 151 kts | 117° |
| 2026-05-06 11:21 | -32.16292 | 115.93189 | 3307 ft | 156 kts | 117° |
| 2026-05-06 11:21 | -32.16749 | 115.94333 | 3659 ft | 152 kts | 114° |
| 2026-05-06 11:21 | -32.17170 | 115.95491 | 3944 ft | 155 kts | 117° |
| 2026-05-06 11:21 | -32.17746 | 115.96587 | 4228 ft | 156 kts | 128° |
| 2026-05-06 11:22 | -32.18480 | 115.97516 | 4574 ft | 154 kts | 137° |
| 2026-05-06 11:22 | -32.19228 | 115.98378 | 5012 ft | 144 kts | 136° |
| 2026-05-06 11:22 | -32.19919 | 115.99237 | 5413 ft | 148 kts | 133° |
| 2026-05-06 11:22 | -32.20571 | 116.00182 | 5870 ft | 147 kts | 126° |
| 2026-05-06 11:23 | -32.21136 | 116.01199 | 6270 ft | 150 kts | 125° |
| 2026-05-06 11:23 | -32.21765 | 116.02200 | 6681 ft | 151 kts | 130° |
| 2026-05-06 11:23 | -32.22470 | 116.03108 | 7113 ft | 150 kts | 135° |
| 2026-05-06 11:23 | -32.23255 | 116.03951 | 7467 ft | 154 kts | 141° |
| 2026-05-06 11:24 | -32.24093 | 116.04734 | 7882 ft | 152 kts | 143° |
| 2026-05-06 11:24 | -32.24934 | 116.05496 | 8252 ft | 154 kts | 146° |
| 2026-05-06 11:24 | -32.25924 | 116.06048 | 8526 ft | 160 kts | 164° |
| 2026-05-06 11:24 | -32.26985 | 116.06337 | 8954 ft | 155 kts | 171° |
| 2026-05-06 11:25 | -32.28096 | 116.06516 | 9029 ft | 167 kts | 173° |
| 2026-05-06 11:25 | -32.29278 | 116.06706 | 9043 ft | 176 kts | 174° |
| 2026-05-06 11:25 | -32.30481 | 116.07067 | 9075 ft | 181 kts | 158° |
| 2026-05-06 11:25 | -32.31584 | 116.07655 | 9340 ft | 172 kts | 153° |
| 2026-05-06 11:26 | -32.32576 | 116.08548 | 9251 ft | 186 kts | 135° |
| 2026-05-06 11:26 | -32.33433 | 116.09712 | 9262 ft | 190 kts | 129° |
| 2026-05-06 11:26 | -32.34213 | 116.11004 | 9166 ft | 198 kts | 124° |
| 2026-05-06 11:26 | -32.34979 | 116.12380 | 9029 ft | 204 kts | 122° |
| 2026-05-06 11:27 | -32.35711 | 116.13845 | 8881 ft | 207 kts | 119° |
| 2026-05-06 11:27 | -32.36391 | 116.15347 | 8826 ft | 205 kts | 120° |
| 2026-05-06 11:27 | -32.37142 | 116.16780 | 8764 ft | 205 kts | 125° |
| 2026-05-06 11:27 | -32.38015 | 116.18122 | 8674 ft | 206 kts | 131° |
| 2026-05-06 11:28 | -32.39000 | 116.19350 | 8619 ft | 205 kts | 137° |
| 2026-05-06 11:28 | -32.40077 | 116.20447 | 8553 ft | 204 kts | 143° |
| 2026-05-06 11:28 | -32.41243 | 116.21409 | 8469 ft | 204 kts | 149° |
| 2026-05-06 11:28 | -32.42467 | 116.22211 | 8417 ft | 203 kts | 155° |
| 2026-05-06 11:29 | -32.43768 | 116.22867 | 8348 ft | 203 kts | 161° |
| 2026-05-06 11:29 | -32.45134 | 116.23370 | 8272 ft | 203 kts | 165° |
| 2026-05-06 11:29 | -32.46512 | 116.23865 | 7938 ft | 212 kts | 162° |
| 2026-05-06 11:29 | -32.47863 | 116.24420 | 8026 ft | 203 kts | 161° |
| 2026-05-06 11:30 | -32.49230 | 116.24984 | 7706 ft | 213 kts | 162° |
| 2026-05-06 11:30 | -32.50627 | 116.25550 | 7638 ft | 208 kts | 160° |
| 2026-05-06 11:30 | -32.51939 | 116.26231 | 7589 ft | 205 kts | 156° |
| 2026-05-06 11:30 | -32.53263 | 116.26935 | 7362 ft | 211 kts | 158° |
| 2026-05-06 11:31 | -32.54615 | 116.27583 | 7303 ft | 206 kts | 160° |
| 2026-05-06 11:31 | -32.55966 | 116.28141 | 7204 ft | 205 kts | 165° |
| 2026-05-06 11:31 | -32.57029 | 116.28838 | 5863 ft | 213 kts | 135° |
| 2026-05-06 11:31 | -32.58007 | 116.30010 | 5932 ft | 180 kts | 136° |
| 2026-05-06 11:32 | -32.58795 | 116.30890 | 6316 ft | 121 kts | 139° |
| 2026-05-06 11:32 | -32.59362 | 116.31417 | 6457 ft | 85 kts | 146° |
| 2026-05-06 11:32 | -32.59970 | 116.31890 | 5684 ft | 139 kts | 154° |